createdAt,value
2016-11-25T00:00:17.600Z,0
2016-11-25T00:01:26.290Z,0
2016-11-25T00:02:34.979Z,0
2016-11-25T00:03:43.676Z,0
2016-11-25T00:04:52.368Z,0
2016-11-25T00:06:01.053Z,0
2016-11-25T00:07:09.770Z,0
2016-11-25T00:08:18.464Z,0
2016-11-25T00:09:27.151Z,0
2016-11-25T00:10:35.841Z,0
2016-11-25T00:11:44.534Z,0
2016-11-25T00:12:53.229Z,0
2016-11-25T00:14:01.930Z,0
2016-11-25T00:15:10.618Z,0
2016-11-25T00:16:19.308Z,0
2016-11-25T00:17:27.996Z,0
2016-11-25T00:18:37.003Z,0
2016-11-25T00:19:45.697Z,0
2016-11-25T00:20:54.385Z,0
2016-11-25T00:22:03.076Z,0
2016-11-25T00:23:11.765Z,0
2016-11-25T00:24:20.457Z,0
2016-11-25T00:25:29.151Z,0
2016-11-25T00:26:37.839Z,0
2016-11-25T00:27:46.531Z,0
2016-11-25T00:28:55.229Z,0
2016-11-25T00:30:03.923Z,0
2016-11-25T00:31:12.618Z,0
2016-11-25T00:32:21.318Z,0
2016-11-25T00:33:30.008Z,0
2016-11-25T00:34:38.696Z,0
2016-11-25T00:35:47.382Z,0
2016-11-25T00:36:56.071Z,0
2016-11-25T00:38:04.764Z,0
2016-11-25T00:39:13.455Z,0
2016-11-25T00:40:22.144Z,0
2016-11-25T00:41:30.833Z,0
2016-11-25T00:42:39.523Z,0
2016-11-25T00:43:48.218Z,0
2016-11-25T00:44:56.918Z,0
2016-11-25T00:46:05.608Z,0
2016-11-25T00:47:14.298Z,0
2016-11-25T00:48:22.986Z,0
2016-11-25T00:49:31.673Z,0
2016-11-25T00:50:40.360Z,0
2016-11-25T00:51:49.052Z,0
2016-11-25T00:52:57.782Z,0
2016-11-25T00:54:06.470Z,0
2016-11-25T00:55:15.154Z,0
2016-11-25T00:56:23.844Z,0
2016-11-25T00:57:32.545Z,0
2016-11-25T00:58:41.232Z,0
2016-11-25T00:59:49.924Z,0
2016-11-25T01:00:58.649Z,0
2016-11-25T01:02:07.337Z,0
2016-11-25T01:03:16.031Z,0
2016-11-25T01:04:24.722Z,0
2016-11-25T01:05:33.413Z,0
2016-11-25T01:06:42.108Z,0
2016-11-25T01:07:50.797Z,0
2016-11-25T01:08:59.490Z,0
2016-11-25T01:10:08.184Z,0
2016-11-25T01:11:16.874Z,0
2016-11-25T01:12:25.568Z,0
2016-11-25T01:13:34.260Z,0
2016-11-25T01:14:42.948Z,0
2016-11-25T01:15:51.651Z,0
2016-11-25T01:17:00.345Z,0
2016-11-25T01:18:09.044Z,0
2016-11-25T01:19:17.745Z,0
2016-11-25T01:20:26.443Z,0
2016-11-25T01:21:35.138Z,0
2016-11-25T01:22:43.827Z,0
2016-11-25T01:23:52.520Z,0
2016-11-25T01:25:01.206Z,0
2016-11-25T01:26:09.899Z,0
2016-11-25T01:27:18.909Z,0
2016-11-25T01:28:27.614Z,0
2016-11-25T01:29:36.302Z,0
2016-11-25T01:30:44.994Z,0
2016-11-25T01:31:53.695Z,0
2016-11-25T01:33:02.396Z,0
2016-11-25T01:34:11.127Z,0
2016-11-25T01:35:19.823Z,0
2016-11-25T01:36:28.518Z,0
2016-11-25T01:37:37.206Z,0
2016-11-25T01:38:45.898Z,0
2016-11-25T01:39:54.592Z,0
2016-11-25T01:41:03.285Z,0
2016-11-25T01:42:11.979Z,0
2016-11-25T01:43:20.702Z,0
2016-11-25T01:44:29.390Z,0
2016-11-25T01:45:38.080Z,0
2016-11-25T01:46:46.773Z,0
2016-11-25T01:47:55.465Z,0
2016-11-25T01:49:04.467Z,0
2016-11-25T01:50:13.161Z,0
2016-11-25T01:51:21.859Z,0
2016-11-25T01:52:30.549Z,0
2016-11-25T01:53:39.238Z,0
2016-11-25T01:54:47.925Z,0
2016-11-25T01:55:56.612Z,0
2016-11-25T01:57:05.312Z,0
2016-11-25T01:58:14.320Z,0
2016-11-25T01:59:23.013Z,0
2016-11-25T02:00:31.706Z,0
2016-11-25T02:01:40.394Z,0
2016-11-25T02:02:49.083Z,0
2016-11-25T02:03:57.775Z,0
2016-11-25T02:05:06.471Z,0
2016-11-25T02:06:15.164Z,0
2016-11-25T02:07:23.853Z,0
2016-11-25T02:08:32.546Z,0
2016-11-25T02:09:41.237Z,0
2016-11-25T02:10:49.932Z,0
2016-11-25T02:11:58.629Z,0
2016-11-25T02:13:07.320Z,0
2016-11-25T02:14:16.012Z,0
2016-11-25T02:15:24.703Z,0
2016-11-25T02:16:33.388Z,0
2016-11-25T02:17:42.078Z,0
2016-11-25T02:18:50.770Z,0
2016-11-25T02:19:59.507Z,0
2016-11-25T02:21:08.204Z,0
2016-11-25T02:22:16.897Z,0
2016-11-25T02:23:25.590Z,0
2016-11-25T02:24:34.282Z,0
2016-11-25T02:25:42.973Z,0
2016-11-25T02:26:51.691Z,0
2016-11-25T02:28:00.383Z,0
2016-11-25T02:29:09.076Z,0
2016-11-25T02:30:17.765Z,0
2016-11-25T02:31:26.457Z,0
2016-11-25T02:32:35.468Z,0
2016-11-25T02:33:44.166Z,0
2016-11-25T02:34:52.855Z,0
2016-11-25T02:36:01.547Z,0
2016-11-25T02:37:10.237Z,0
2016-11-25T02:38:18.927Z,0
2016-11-25T02:39:27.616Z,0
2016-11-25T02:40:36.334Z,0
2016-11-25T02:41:45.349Z,0
2016-11-25T02:42:54.037Z,0
2016-11-25T02:44:02.731Z,0
2016-11-25T02:45:11.420Z,0
2016-11-25T02:46:20.138Z,0
2016-11-25T02:47:28.828Z,0
2016-11-25T02:48:37.523Z,0
2016-11-25T02:49:46.214Z,0
2016-11-25T02:50:54.913Z,0
2016-11-25T02:52:03.611Z,0
2016-11-25T02:53:12.301Z,0
2016-11-25T02:54:20.986Z,0
2016-11-25T02:55:29.681Z,0
2016-11-25T02:56:38.376Z,0
2016-11-25T02:57:47.066Z,0
2016-11-25T02:58:55.759Z,0
2016-11-25T03:00:04.452Z,0
2016-11-25T03:01:13.147Z,0
2016-11-25T03:02:21.872Z,0
2016-11-25T03:03:30.564Z,0
2016-11-25T03:04:39.252Z,0
2016-11-25T03:05:47.943Z,0
2016-11-25T03:06:56.634Z,0
2016-11-25T03:08:05.329Z,0
2016-11-25T03:09:14.025Z,0
2016-11-25T03:10:22.719Z,0
2016-11-25T03:11:31.411Z,0
2016-11-25T03:12:40.107Z,0
2016-11-25T03:13:48.802Z,0
2016-11-25T03:14:57.495Z,0
2016-11-25T03:16:06.185Z,0
2016-11-25T03:17:14.880Z,0
2016-11-25T03:18:23.572Z,0
2016-11-25T03:19:32.263Z,0
2016-11-25T03:20:40.955Z,0
2016-11-25T03:21:49.648Z,0
2016-11-25T03:22:58.343Z,0
2016-11-25T03:24:07.031Z,0
2016-11-25T03:25:15.716Z,0
2016-11-25T03:26:24.408Z,0
2016-11-25T03:27:33.127Z,0
2016-11-25T03:28:41.817Z,0
2016-11-25T03:29:50.505Z,0
2016-11-25T03:30:59.200Z,0
2016-11-25T03:32:07.891Z,0
2016-11-25T03:33:16.582Z,0
2016-11-25T03:34:25.281Z,0
2016-11-25T03:35:33.981Z,0
2016-11-25T03:36:42.679Z,0
2016-11-25T03:37:51.375Z,0
2016-11-25T03:39:00.066Z,0
2016-11-25T03:40:08.759Z,0
2016-11-25T03:41:17.453Z,0
2016-11-25T03:42:26.150Z,0
2016-11-25T03:43:34.844Z,0
2016-11-25T03:44:43.533Z,0
2016-11-25T03:45:52.228Z,0
2016-11-25T03:47:00.925Z,0
2016-11-25T03:48:09.614Z,0
2016-11-25T03:49:18.310Z,0
2016-11-25T03:50:27.003Z,0
2016-11-25T03:51:35.692Z,0
2016-11-25T03:52:44.384Z,0
2016-11-25T03:53:53.082Z,0
2016-11-25T03:55:01.770Z,0
2016-11-25T03:56:10.462Z,0
2016-11-25T03:57:19.152Z,0
2016-11-25T03:58:27.847Z,0
2016-11-25T03:59:36.544Z,0
2016-11-25T04:00:45.290Z,0
2016-11-25T04:01:54.295Z,0
2016-11-25T04:03:02.978Z,0
2016-11-25T04:04:11.674Z,0
2016-11-25T04:05:20.372Z,0
2016-11-25T04:06:29.063Z,0
2016-11-25T04:07:37.760Z,0
2016-11-25T04:08:46.454Z,0
2016-11-25T04:09:55.153Z,0
2016-11-25T04:11:03.841Z,0
2016-11-25T04:12:12.538Z,0
2016-11-25T04:13:21.230Z,0
2016-11-25T04:14:29.922Z,0
2016-11-25T04:15:38.617Z,0
2016-11-25T04:16:47.312Z,0
2016-11-25T04:17:56.009Z,0
2016-11-25T04:19:04.705Z,0
2016-11-25T04:20:13.399Z,0
2016-11-25T04:21:22.088Z,0
2016-11-25T04:22:30.780Z,0
2016-11-25T04:23:39.500Z,0
2016-11-25T04:24:48.193Z,0
2016-11-25T04:25:56.884Z,0
2016-11-25T04:27:05.577Z,0
2016-11-25T04:28:14.269Z,0
2016-11-25T04:29:22.989Z,0
2016-11-25T04:30:31.683Z,0
2016-11-25T04:31:40.373Z,0
2016-11-25T04:32:49.070Z,0
2016-11-25T04:33:57.761Z,0
2016-11-25T04:35:06.455Z,0
2016-11-25T04:36:15.141Z,0
2016-11-25T04:37:23.832Z,0
2016-11-25T04:38:32.521Z,0
2016-11-25T04:39:41.210Z,0
2016-11-25T04:40:49.901Z,0
2016-11-25T04:41:58.592Z,0
2016-11-25T04:43:07.283Z,0
2016-11-25T04:44:15.979Z,0
2016-11-25T04:45:24.697Z,0
2016-11-25T04:46:33.423Z,0
2016-11-25T04:47:42.120Z,0
2016-11-25T04:48:50.813Z,0
2016-11-25T04:49:59.518Z,0
2016-11-25T04:51:08.215Z,0
2016-11-25T04:52:16.930Z,0
2016-11-25T04:53:25.616Z,0
2016-11-25T04:54:34.307Z,0
2016-11-25T04:55:43.021Z,0
2016-11-25T04:56:51.723Z,0
2016-11-25T04:58:00.413Z,0
2016-11-25T04:59:09.104Z,0
2016-11-25T05:00:17.796Z,0
2016-11-25T05:01:26.486Z,0
2016-11-25T05:02:35.178Z,0
2016-11-25T05:03:43.882Z,0
2016-11-25T05:04:52.572Z,0
2016-11-25T05:06:01.272Z,0
2016-11-25T05:07:09.961Z,0
2016-11-25T05:08:18.655Z,0
2016-11-25T05:09:27.353Z,0
2016-11-25T05:10:36.072Z,0
2016-11-25T05:11:44.797Z,0
2016-11-25T05:12:53.496Z,0
2016-11-25T05:14:02.192Z,0
2016-11-25T05:15:10.889Z,0
2016-11-25T05:16:19.587Z,0
2016-11-25T05:17:28.277Z,0
2016-11-25T05:18:36.968Z,0
2016-11-25T05:19:45.694Z,0
2016-11-25T05:20:54.418Z,0
2016-11-25T05:22:03.114Z,0
2016-11-25T05:23:11.806Z,0
2016-11-25T05:24:20.495Z,0
2016-11-25T05:25:29.186Z,0
2016-11-25T05:26:37.897Z,0
2016-11-25T05:27:46.592Z,0
2016-11-25T05:28:55.320Z,0
2016-11-25T05:30:04.007Z,0
2016-11-25T05:31:12.697Z,0
2016-11-25T05:32:21.718Z,0
2016-11-25T05:33:30.411Z,0
2016-11-25T05:34:39.144Z,0
2016-11-25T05:35:47.834Z,0
2016-11-25T05:36:56.525Z,0
2016-11-25T05:38:05.216Z,0
2016-11-25T05:39:13.936Z,0
2016-11-25T05:40:22.636Z,0
2016-11-25T05:41:31.326Z,0
2016-11-25T05:42:40.339Z,0
2016-11-25T05:43:49.032Z,0
2016-11-25T05:44:57.727Z,0
2016-11-25T05:46:06.415Z,0
2016-11-25T05:47:15.106Z,0
2016-11-25T05:48:23.799Z,0
2016-11-25T05:49:32.491Z,0
2016-11-25T05:50:41.191Z,0
2016-11-25T05:51:49.882Z,0
2016-11-25T05:52:58.575Z,0
2016-11-25T05:54:07.267Z,0
2016-11-25T05:55:15.955Z,0
2016-11-25T05:56:24.647Z,0
2016-11-25T05:57:33.341Z,0
2016-11-25T05:58:42.031Z,0
2016-11-25T05:59:50.729Z,0
2016-11-25T06:00:59.524Z,0
2016-11-25T06:02:08.222Z,0
2016-11-25T06:03:16.917Z,0
2016-11-25T06:04:25.603Z,0
2016-11-25T06:05:34.299Z,0
2016-11-25T06:06:42.998Z,0
2016-11-25T06:07:51.717Z,0
2016-11-25T06:09:00.408Z,0
2016-11-25T06:10:09.105Z,0
2016-11-25T06:11:17.798Z,0
2016-11-25T06:12:26.491Z,0
2016-11-25T06:13:35.189Z,0
2016-11-25T06:14:43.882Z,0
2016-11-25T06:15:52.574Z,0
2016-11-25T06:17:01.264Z,0
2016-11-25T06:18:09.955Z,0
2016-11-25T06:19:18.647Z,0
2016-11-25T06:20:27.342Z,0
2016-11-25T06:21:36.039Z,0
2016-11-25T06:22:44.734Z,0
2016-11-25T06:23:53.425Z,0
2016-11-25T06:25:02.128Z,0
2016-11-25T06:26:10.817Z,0
2016-11-25T06:27:19.520Z,0
2016-11-25T06:28:28.212Z,0
2016-11-25T06:29:36.906Z,0
2016-11-25T06:30:45.602Z,0
2016-11-25T06:31:54.611Z,0
2016-11-25T06:33:03.301Z,0
2016-11-25T06:34:11.989Z,0
2016-11-25T06:35:20.700Z,0
2016-11-25T06:36:29.399Z,0
2016-11-25T06:37:38.090Z,0
2016-11-25T06:38:46.796Z,0
2016-11-25T06:39:55.489Z,0
2016-11-25T06:41:04.181Z,0
2016-11-25T06:42:12.875Z,0
2016-11-25T06:43:21.597Z,0
2016-11-25T06:44:30.290Z,0
2016-11-25T06:45:38.984Z,0
2016-11-25T06:46:47.679Z,0
2016-11-25T06:47:56.380Z,0
2016-11-25T06:49:05.102Z,0
2016-11-25T06:50:13.813Z,0
2016-11-25T06:51:22.532Z,0
2016-11-25T06:52:31.226Z,0
2016-11-25T06:53:39.911Z,0
2016-11-25T06:54:48.612Z,0
2016-11-25T06:55:57.305Z,0
2016-11-25T06:57:06.035Z,0
2016-11-25T06:58:14.722Z,0
2016-11-25T06:59:23.415Z,0
2016-11-25T07:00:32.110Z,0
2016-11-25T07:01:40.807Z,0
2016-11-25T07:02:49.494Z,0
2016-11-25T07:03:58.214Z,0
2016-11-25T07:05:06.906Z,0
2016-11-25T07:06:15.602Z,0
2016-11-25T07:07:24.291Z,0
2016-11-25T07:08:32.991Z,0
2016-11-25T07:09:41.686Z,0
2016-11-25T07:10:50.383Z,0
2016-11-25T07:11:59.076Z,0
2016-11-25T07:13:07.771Z,0
2016-11-25T07:14:16.461Z,0
2016-11-25T07:15:25.155Z,0
2016-11-25T07:16:33.848Z,0
2016-11-25T07:17:42.536Z,0
2016-11-25T07:18:51.236Z,0
2016-11-25T07:19:59.923Z,0
2016-11-25T07:21:08.618Z,0
2016-11-25T07:22:17.315Z,0
2016-11-25T07:23:26.007Z,0
2016-11-25T07:24:34.705Z,0
2016-11-25T07:25:43.398Z,0
2016-11-25T07:26:52.091Z,0
2016-11-25T07:28:00.784Z,0
2016-11-25T07:29:09.476Z,0
2016-11-25T07:30:18.167Z,0
2016-11-25T07:31:26.859Z,0
2016-11-25T07:32:35.555Z,0
2016-11-25T07:33:44.252Z,0
2016-11-25T07:34:52.975Z,0
2016-11-25T07:36:01.668Z,0
2016-11-25T07:37:10.367Z,0
2016-11-25T07:38:19.058Z,0
2016-11-25T07:39:27.749Z,0
2016-11-25T07:40:36.440Z,5
2016-11-25T07:41:45.143Z,5
2016-11-25T07:42:53.837Z,5
2016-11-25T07:44:02.531Z,5
2016-11-25T07:45:11.225Z,5
2016-11-25T07:46:19.922Z,5
2016-11-25T07:47:28.614Z,5
2016-11-25T07:48:37.307Z,5
2016-11-25T07:49:46.018Z,5
2016-11-25T07:50:54.706Z,5
2016-11-25T07:52:03.398Z,5
2016-11-25T07:53:12.120Z,5
2016-11-25T07:54:20.814Z,5
2016-11-25T07:55:29.882Z,5
2016-11-25T07:56:38.578Z,10
2016-11-25T07:57:47.269Z,10
2016-11-25T07:58:55.962Z,10
2016-11-25T08:00:04.661Z,10
2016-11-25T08:01:13.359Z,10
2016-11-25T08:02:22.050Z,10
2016-11-25T08:03:30.742Z,10
2016-11-25T08:04:39.437Z,10
2016-11-25T08:05:48.123Z,10
2016-11-25T08:06:56.819Z,15
2016-11-25T08:08:05.828Z,15
2016-11-25T08:09:14.519Z,15
2016-11-25T08:10:23.209Z,15
2016-11-25T08:11:31.906Z,15
2016-11-25T08:12:40.605Z,15
2016-11-25T08:13:49.298Z,15
2016-11-25T08:14:57.992Z,20
2016-11-25T08:16:06.686Z,20
2016-11-25T08:17:15.380Z,20
2016-11-25T08:18:24.074Z,20
2016-11-25T08:19:32.766Z,20
2016-11-25T08:20:41.458Z,20
2016-11-25T08:21:50.158Z,20
2016-11-25T08:22:58.847Z,20
2016-11-25T08:24:07.589Z,25
2016-11-25T08:25:16.292Z,25
2016-11-25T08:26:24.987Z,25
2016-11-25T08:27:33.684Z,30
2016-11-25T08:28:42.399Z,30
2016-11-25T08:29:51.130Z,30
2016-11-25T08:30:59.820Z,30
2016-11-25T08:32:08.508Z,35
2016-11-25T08:33:17.203Z,35
2016-11-25T08:34:25.908Z,35
2016-11-25T08:35:34.919Z,35
2016-11-25T08:36:43.613Z,35
2016-11-25T08:37:52.305Z,35
2016-11-25T08:39:01.001Z,40
2016-11-25T08:40:09.702Z,40
2016-11-25T08:41:18.393Z,40
2016-11-25T08:42:27.084Z,40
2016-11-25T08:43:35.774Z,40
2016-11-25T08:44:44.476Z,40
2016-11-25T08:45:53.170Z,40
2016-11-25T08:47:01.867Z,45
2016-11-25T08:48:10.561Z,45
2016-11-25T08:49:19.562Z,45
2016-11-25T08:50:28.257Z,45
2016-11-25T08:51:36.952Z,50
2016-11-25T08:52:45.649Z,50
2016-11-25T08:53:54.348Z,50
2016-11-25T08:55:03.037Z,50
2016-11-25T08:56:36.070Z,50
2016-11-25T08:57:46.683Z,50
2016-11-25T08:58:55.698Z,50
2016-11-25T09:00:04.416Z,45
2016-11-25T09:01:13.105Z,45
2016-11-25T09:02:21.801Z,45
2016-11-25T09:03:42.161Z,45
2016-11-25T09:04:50.857Z,45
2016-11-25T09:05:59.556Z,45
2016-11-25T09:07:08.252Z,45
2016-11-25T09:08:16.949Z,45
2016-11-25T09:09:25.793Z,45
2016-11-25T09:10:34.481Z,50
2016-11-25T09:11:43.170Z,50
2016-11-25T09:12:51.864Z,50
2016-11-25T09:14:00.562Z,50
2016-11-25T09:15:09.260Z,50
2016-11-25T09:16:17.945Z,50
2016-11-25T09:17:26.635Z,50
2016-11-25T09:18:35.323Z,50
2016-11-25T09:19:44.019Z,50
2016-11-25T09:20:52.727Z,50
2016-11-25T09:22:01.733Z,50
2016-11-25T09:23:10.747Z,50
2016-11-25T09:24:19.440Z,55
2016-11-25T09:25:28.156Z,55
2016-11-25T09:26:36.845Z,55
2016-11-25T09:27:45.541Z,60
2016-11-25T09:28:54.249Z,60
2016-11-25T09:30:02.946Z,65
2016-11-25T09:31:11.953Z,65
2016-11-25T09:32:20.654Z,70
2016-11-25T09:33:29.347Z,70
2016-11-25T09:34:38.045Z,70
2016-11-25T09:35:46.735Z,70
2016-11-25T09:36:55.424Z,70
2016-11-25T09:38:04.116Z,65
2016-11-25T09:39:12.818Z,65
2016-11-25T09:40:21.506Z,65
2016-11-25T09:41:30.199Z,65
2016-11-25T09:42:38.897Z,65
2016-11-25T09:43:47.590Z,65
2016-11-25T09:44:56.283Z,65
2016-11-25T09:46:04.976Z,70
2016-11-25T09:47:13.673Z,70
2016-11-25T09:48:22.371Z,70
2016-11-25T09:49:31.062Z,70
2016-11-25T09:50:39.755Z,70
2016-11-25T09:51:48.450Z,70
2016-11-25T09:52:57.142Z,70
2016-11-25T09:54:05.831Z,75
2016-11-25T09:55:14.526Z,75
2016-11-25T09:56:23.221Z,80
2016-11-25T09:57:31.910Z,80
2016-11-25T09:58:40.604Z,80
2016-11-25T09:59:49.304Z,80
2016-11-25T10:00:57.996Z,80
2016-11-25T10:02:06.729Z,80
2016-11-25T10:03:15.422Z,80
2016-11-25T10:04:24.111Z,80
2016-11-25T10:05:32.799Z,80
2016-11-25T10:06:41.495Z,80
2016-11-25T10:07:50.192Z,80
2016-11-25T10:08:58.890Z,80
2016-11-25T10:10:07.583Z,75
2016-11-25T10:11:16.275Z,75
2016-11-25T10:12:24.963Z,75
2016-11-25T10:13:33.654Z,70
2016-11-25T10:14:42.349Z,70
2016-11-25T10:15:51.039Z,70
2016-11-25T10:16:59.728Z,70
2016-11-25T10:18:08.427Z,70
2016-11-25T10:19:17.123Z,70
2016-11-25T10:20:25.811Z,70
2016-11-25T10:21:34.500Z,70
2016-11-25T10:22:43.194Z,70
2016-11-25T10:23:51.887Z,75
2016-11-25T10:25:00.586Z,75
2016-11-25T10:26:09.284Z,75
2016-11-25T10:27:17.980Z,75
2016-11-25T10:28:26.672Z,75
2016-11-25T10:29:35.363Z,75
2016-11-25T10:30:44.058Z,75
2016-11-25T10:31:52.751Z,75
2016-11-25T10:33:01.449Z,75
2016-11-25T10:34:10.143Z,75
2016-11-25T10:35:19.151Z,75
2016-11-25T10:36:27.842Z,75
2016-11-25T10:37:36.535Z,75
2016-11-25T10:38:45.235Z,75
2016-11-25T10:39:53.934Z,75
2016-11-25T10:41:02.627Z,75
2016-11-25T10:42:11.328Z,75
2016-11-25T10:43:20.024Z,80
2016-11-25T10:44:28.719Z,75
2016-11-25T10:45:37.416Z,75
2016-11-25T10:46:46.108Z,75
2016-11-25T10:47:54.805Z,75
2016-11-25T10:49:03.494Z,75
2016-11-25T10:50:12.195Z,75
2016-11-25T10:51:20.885Z,75
2016-11-25T10:52:29.574Z,80
2016-11-25T10:53:38.269Z,80
2016-11-25T10:54:47.284Z,80
2016-11-25T10:55:56.004Z,80
2016-11-25T10:57:04.699Z,80
2016-11-25T10:58:13.391Z,80
2016-11-25T10:59:22.419Z,80
2016-11-25T11:00:31.146Z,80
2016-11-25T11:01:39.835Z,75
2016-11-25T11:02:48.529Z,75
2016-11-25T11:03:57.217Z,75
2016-11-25T11:05:05.926Z,75
2016-11-25T11:06:14.616Z,80
2016-11-25T11:07:23.311Z,80
2016-11-25T11:08:32.005Z,85
2016-11-25T11:09:40.699Z,85
2016-11-25T11:10:49.390Z,90
2016-11-25T11:11:58.084Z,90
2016-11-25T11:13:07.098Z,90
2016-11-25T11:14:15.790Z,90
2016-11-25T11:15:24.487Z,90
2016-11-25T11:16:33.185Z,90
2016-11-25T11:17:41.879Z,85
2016-11-25T11:18:50.573Z,85
2016-11-25T11:19:59.267Z,85
2016-11-25T11:21:07.959Z,85
2016-11-25T11:22:16.663Z,90
2016-11-25T11:23:25.357Z,90
2016-11-25T11:24:34.052Z,95
2016-11-25T11:25:42.745Z,100
2016-11-25T11:26:51.440Z,105
2016-11-25T11:28:00.135Z,110
2016-11-25T11:29:09.143Z,115
2016-11-25T11:30:17.839Z,115
2016-11-25T11:31:26.535Z,120
2016-11-25T11:32:35.546Z,125
2016-11-25T11:33:44.239Z,125
2016-11-25T11:34:53.580Z,130
2016-11-25T11:36:02.278Z,130
2016-11-25T11:37:10.970Z,130
2016-11-25T11:38:19.667Z,135
2016-11-25T11:39:28.410Z,135
2016-11-25T11:40:37.111Z,135
2016-11-25T11:41:45.803Z,130
2016-11-25T11:42:54.496Z,130
2016-11-25T11:44:03.189Z,130
2016-11-25T11:45:11.886Z,135
2016-11-25T11:46:20.582Z,130
2016-11-25T11:47:29.273Z,125
2016-11-25T11:48:37.967Z,125
2016-11-25T11:49:46.663Z,125
2016-11-25T11:50:55.357Z,125
2016-11-25T11:52:04.055Z,125
2016-11-25T11:53:12.747Z,125
2016-11-25T11:54:21.443Z,125
2016-11-25T11:55:30.134Z,125
2016-11-25T11:56:38.830Z,120
2016-11-25T11:57:47.528Z,120
2016-11-25T11:58:56.263Z,120
2016-11-25T12:00:04.956Z,120
2016-11-25T12:01:13.651Z,125
2016-11-25T12:02:22.347Z,125
2016-11-25T12:03:31.040Z,130
2016-11-25T12:04:39.733Z,130
2016-11-25T12:05:48.433Z,135
2016-11-25T12:06:57.164Z,135
2016-11-25T12:08:05.855Z,140
2016-11-25T12:09:14.552Z,140
2016-11-25T12:10:23.246Z,140
2016-11-25T12:11:31.940Z,140
2016-11-25T12:12:40.632Z,140
2016-11-25T12:13:49.328Z,140
2016-11-25T12:14:58.017Z,140
2016-11-25T12:16:06.747Z,140
2016-11-25T12:17:15.441Z,135
2016-11-25T12:18:24.170Z,130
2016-11-25T12:19:32.864Z,130
2016-11-25T12:20:41.556Z,130
2016-11-25T12:21:50.260Z,125
2016-11-25T12:22:58.953Z,125
2016-11-25T12:24:07.653Z,120
2016-11-25T12:25:16.347Z,115
2016-11-25T12:26:25.037Z,115
2016-11-25T12:27:33.764Z,110
2016-11-25T12:28:42.459Z,110
2016-11-25T12:29:51.261Z,105
2016-11-25T12:30:59.983Z,105
2016-11-25T12:32:08.675Z,105
2016-11-25T12:33:17.365Z,105
2016-11-25T12:34:26.384Z,105
2016-11-25T12:35:35.130Z,100
2016-11-25T12:36:43.820Z,100
2016-11-25T12:37:52.528Z,100
2016-11-25T12:39:01.216Z,95
2016-11-25T12:40:09.913Z,95
2016-11-25T12:41:18.606Z,95
2016-11-25T12:42:27.298Z,90
2016-11-25T12:43:35.996Z,90
2016-11-25T12:44:44.687Z,90
2016-11-25T12:45:53.378Z,90
2016-11-25T12:47:02.074Z,90
2016-11-25T12:48:10.764Z,85
2016-11-25T12:49:19.471Z,85
2016-11-25T12:50:28.162Z,85
2016-11-25T12:51:36.852Z,85
2016-11-25T12:52:45.552Z,80
2016-11-25T12:53:54.242Z,80
2016-11-25T12:55:03.253Z,80
2016-11-25T12:56:11.948Z,75
2016-11-25T12:57:20.646Z,75
2016-11-25T12:58:29.333Z,70
2016-11-25T12:59:38.033Z,70
2016-11-25T13:00:46.724Z,70
2016-11-25T13:01:55.422Z,70
2016-11-25T13:03:04.112Z,65
2016-11-25T13:04:12.812Z,60
2016-11-25T13:05:21.504Z,55
2016-11-25T13:06:30.197Z,55
2016-11-25T13:07:38.891Z,50
2016-11-25T13:08:47.590Z,50
2016-11-25T13:09:56.292Z,45
2016-11-25T13:11:04.990Z,45
2016-11-25T13:12:13.719Z,40
2016-11-25T13:13:22.416Z,40
2016-11-25T13:14:31.116Z,40
2016-11-25T13:15:39.805Z,35
2016-11-25T13:16:48.535Z,35
2016-11-25T13:17:57.235Z,35
2016-11-25T13:19:05.930Z,35
2016-11-25T13:20:14.629Z,30
2016-11-25T13:21:23.323Z,30
2016-11-25T13:22:32.017Z,30
2016-11-25T13:23:40.708Z,30
2016-11-25T13:24:49.408Z,25
2016-11-25T13:25:58.103Z,25
2016-11-25T13:27:06.793Z,25
2016-11-25T13:28:15.515Z,25
2016-11-25T13:29:24.208Z,25
2016-11-25T13:30:32.908Z,25
2016-11-25T13:31:41.605Z,20
2016-11-25T13:32:50.332Z,20
2016-11-25T13:33:59.021Z,20
2016-11-25T13:35:07.717Z,20
2016-11-25T13:36:16.413Z,20
2016-11-25T13:37:25.112Z,20
2016-11-25T13:38:33.810Z,15
2016-11-25T13:39:42.511Z,15
2016-11-25T13:40:51.204Z,15
2016-11-25T13:41:59.907Z,15
2016-11-25T13:43:08.596Z,15
2016-11-25T13:44:17.297Z,15
2016-11-25T13:45:25.994Z,15
2016-11-25T13:46:34.684Z,10
2016-11-25T13:47:43.380Z,10
2016-11-25T13:48:52.077Z,10
2016-11-25T13:50:00.772Z,10
2016-11-25T13:51:09.788Z,10
2016-11-25T13:52:18.491Z,10
2016-11-25T13:53:27.216Z,10
2016-11-25T13:54:35.913Z,10
2016-11-25T13:55:44.609Z,10
2016-11-25T13:56:53.312Z,5
2016-11-25T13:58:02.008Z,5
2016-11-25T13:59:10.714Z,5
2016-11-25T14:00:19.449Z,5
2016-11-25T14:01:28.141Z,5
2016-11-25T14:02:37.150Z,5
2016-11-25T14:03:45.851Z,5
2016-11-25T14:04:54.548Z,5
2016-11-25T14:06:03.565Z,5
2016-11-25T14:07:12.261Z,5
2016-11-25T14:08:20.960Z,5
2016-11-25T14:09:29.650Z,5
2016-11-25T14:10:38.347Z,5
2016-11-25T14:11:47.046Z,5
2016-11-25T14:12:55.740Z,5
2016-11-25T14:14:04.438Z,5
2016-11-25T14:15:13.142Z,5
2016-11-25T14:16:21.837Z,0
2016-11-25T14:17:30.536Z,0
2016-11-25T14:18:39.546Z,0
2016-11-25T14:19:48.275Z,0
2016-11-25T14:20:56.971Z,0
2016-11-25T14:22:05.996Z,0
2016-11-25T14:23:14.688Z,0
2016-11-25T14:24:23.397Z,0
2016-11-25T14:25:32.098Z,0
2016-11-25T14:26:40.795Z,0
2016-11-25T14:27:49.491Z,0
2016-11-25T14:28:58.505Z,0
2016-11-25T14:30:07.199Z,0
2016-11-25T14:31:15.916Z,0
2016-11-25T14:32:24.610Z,0
2016-11-25T14:33:33.304Z,0
2016-11-25T14:34:41.998Z,0
2016-11-25T14:35:50.693Z,0
2016-11-25T14:36:59.384Z,0
2016-11-25T14:38:08.085Z,0
2016-11-25T14:39:17.097Z,0
2016-11-25T14:40:25.796Z,0
2016-11-25T14:41:34.503Z,0
2016-11-25T14:42:43.203Z,0
2016-11-25T14:43:51.925Z,0
2016-11-25T14:45:00.618Z,0
2016-11-25T14:46:09.343Z,0
2016-11-25T14:47:18.042Z,0
2016-11-25T14:48:26.744Z,0
2016-11-25T14:49:35.443Z,0
2016-11-25T14:50:44.138Z,0
2016-11-25T14:51:52.847Z,0
2016-11-25T14:53:01.545Z,0
2016-11-25T14:54:10.272Z,0
2016-11-25T14:55:18.972Z,0
2016-11-25T14:56:27.670Z,0
2016-11-25T14:57:36.363Z,0
2016-11-25T14:58:45.060Z,0
2016-11-25T14:59:53.754Z,0
2016-11-25T15:01:02.452Z,0
2016-11-25T15:02:11.153Z,0
2016-11-25T15:03:19.854Z,0
2016-11-25T15:04:28.559Z,0
2016-11-25T15:05:37.249Z,0
2016-11-25T15:06:45.942Z,0
2016-11-25T15:07:54.645Z,0
2016-11-25T15:09:03.359Z,0
2016-11-25T15:10:12.062Z,0
2016-11-25T15:11:20.757Z,0
2016-11-25T15:12:29.475Z,0
2016-11-25T15:13:38.168Z,0
2016-11-25T15:14:46.866Z,0
2016-11-25T15:15:55.563Z,0
2016-11-25T15:17:04.285Z,0
2016-11-25T15:18:12.985Z,0
2016-11-25T15:19:21.682Z,0
2016-11-25T15:20:30.392Z,0
2016-11-25T15:21:39.088Z,0
2016-11-25T15:22:47.787Z,0
2016-11-25T15:23:56.483Z,0
2016-11-25T15:25:05.501Z,0
2016-11-25T15:26:14.197Z,0
2016-11-25T15:27:22.890Z,0
2016-11-25T15:28:31.582Z,0
2016-11-25T15:29:40.273Z,0
2016-11-25T15:30:48.974Z,0
2016-11-25T15:31:57.675Z,0
2016-11-25T15:33:06.404Z,0
2016-11-25T15:34:15.099Z,0
2016-11-25T15:35:23.799Z,0
2016-11-25T15:36:32.526Z,0
2016-11-25T15:37:41.222Z,0
2016-11-25T15:38:49.940Z,0
2016-11-25T15:39:58.632Z,0
2016-11-25T15:41:07.328Z,0
2016-11-25T15:42:16.056Z,0
2016-11-25T15:43:24.780Z,0
2016-11-25T15:44:33.478Z,0
2016-11-25T15:45:42.171Z,0
2016-11-25T15:46:50.863Z,0
2016-11-25T15:47:59.560Z,0
2016-11-25T15:49:08.265Z,0
2016-11-25T15:50:16.958Z,0
2016-11-25T15:51:25.657Z,0
2016-11-25T15:52:34.357Z,0
2016-11-25T15:53:43.058Z,0
2016-11-25T15:54:51.756Z,0
2016-11-25T15:56:00.451Z,0
2016-11-25T15:57:09.149Z,0
2016-11-25T15:58:17.842Z,0
2016-11-25T15:59:26.539Z,0
2016-11-25T16:00:35.231Z,0
2016-11-25T16:01:43.934Z,0
2016-11-25T16:02:52.633Z,0
2016-11-25T16:04:01.330Z,0
2016-11-25T16:05:10.032Z,0
2016-11-25T16:06:19.055Z,0
2016-11-25T16:07:27.754Z,0
2016-11-25T16:08:36.455Z,0
2016-11-25T16:09:45.147Z,0
2016-11-25T16:10:53.845Z,0
2016-11-25T16:12:02.576Z,0
2016-11-25T16:13:11.271Z,0
2016-11-25T16:14:19.972Z,0
2016-11-25T16:15:28.980Z,0
2016-11-25T16:16:37.676Z,0
2016-11-25T16:17:46.377Z,0
2016-11-25T16:18:55.069Z,0
2016-11-25T16:20:03.762Z,0
2016-11-25T16:21:12.470Z,0
2016-11-25T16:22:21.167Z,0
2016-11-25T16:23:29.864Z,0
2016-11-25T16:24:38.560Z,0
2016-11-25T16:25:47.262Z,0
2016-11-25T16:26:55.956Z,0
2016-11-25T16:28:04.647Z,0
2016-11-25T16:29:13.348Z,0
2016-11-25T16:30:22.047Z,0
2016-11-25T16:31:30.746Z,0
2016-11-25T16:32:39.441Z,0
2016-11-25T16:33:48.140Z,0
2016-11-25T16:34:56.829Z,0
2016-11-25T16:36:05.521Z,0
2016-11-25T16:37:14.228Z,0
2016-11-25T16:38:22.926Z,0
2016-11-25T16:39:31.625Z,0
2016-11-25T16:40:40.318Z,0